Relevés horaires St-Hubert (Belgique)


Relevés horaires à St-Hubert - Lundi 23 Juill. 2018
Heure UTC1 Température [°C] Vent [km/h] Hum. [%] Pres.4 [hPa] Visi. [Km] Nébu. [octa] Préc.5 [mm] Cond.
2m. Res. Ros. Dir.2 Vit. Moy. Raf.3
23:00 18.5 18.5 13.2 NNO 0.0 0.0 0.0 71 1017.4(0.1/3h) 45 0/8 -- --
22:00 19.1 19.1 13.4 NNO 0.0 0.0 0.0 70 1017.2(0.1/3h) 40 0/8 -- --
21:00 18.5 18.5 13.4 NNO 0.0 0.0 0.0 72 1017.4(0.1/3h) 45 0/8 -- --
20:00 20.0 20.0 13.6 NNO 0.0 0.0 0.0 67 1017.1(0.0/3h) 45 0/8 -- --
19:00 22.8 22.8 12.9 NNO 0.0 0.0 0.0 54 1016.4(-0.3/3h) 40 0/8 -- --
18:00 24.5 24.5 12.3 NNO 0.0 0.0 0.0 47 1016(-0.5/3h) 35 0/8 0/12h
--
17:00 24.5 24.5 12.0 NNO 0.0 0.0 0.0 46 1016.1(-0.7/3h) 40 0/8 -- --
16:00 24.6 24.6 12.1 NNO 0.0 0.0 0.0 46 1016.4(-0.6/3h) 30 0/8 -- --
15:00 24.2 24.2 10.9 NNO 0.0 0.0 0.0 43 1016.6(-0.7/3h) 35 0/8 -- --
14:00 24.5 24.5 12.1 NNO 0.0 0.0 0.0 46 1016.9(-0.5/3h) 35 0/8 -- --
13:00 23.9 23.9 11.9 NNO 0.0 0.0 0.0 47 1017.2(-0.4/3h) 35 0/8 -- --
12:00 23.5 23.5 10.8 NNO 0.0 0.0 0.0 45 1017.5(0.0/3h) 30 0/8 0/6h
--
11:00 21.7 21.7 9.9 NNO 0.0 0.0 0.0 47 1018(0.3/3h) 40 0/8 -- --
10:00 21.2 21.2 12.0 NNO 0.0 0.0 0.0 56 1018.2(0.5/3h) 35 0/8 -- --
09:00 20.5 20.5 12.8 NNO 0.0 0.0 0.0 61 1018.1(0.5/3h) 30 0/8 -- --
08:00 20.2 20.2 11.7 NNO 0.0 0.0 0.0 58 1018(0.4/3h) 30 0/8 -- --
07:00 19.6 19.6 12.1 NNO 0.0 0.0 0.0 62 1018(0.6/3h) 28 0/8 -- --
06:00 17.9 17.9 12.1 NNO 0.0 0.0 0.0 69 1018.2(0.7/3h) 30 0/8 0/12h
--
05:00 16.2 16.2 12.1 NNO 0.0 0.0 0.0 77 1018.5(0.6/3h) 35 0/8 -- --
04:00 14.0 14.0 11.1 NNO 0.0 0.0 0.0 83 1018.6(-0.2/3h) 35 0/8 -- --
03:00 16.2 16.2 11.3 NNO 0.0 0.0 0.0 73 1017.8(-0.2/3h) 45 0/8 -- --
02:00 14.6 14.6 11.3 NNO 0.0 0.0 0.0 81 1018.2(-0.2/3h) 45 0/8 -- --
01:00 15.8 15.8 11.7 NNO 0.0 0.0 0.0 77 1018(0.1/3h) 45 0/8 -- --
00:00 15.8 15.8 11.3 NNO 0.0 0.0 0.0 75 1018.2(0.7/3h) 40 0/8 0/6h
0/24h
--

1 Coordinated Universal Time. Actuellement il est 11:00 locale et 09:00 UTC.

2 Le vent souffle depuis la direction indiquée vers la direction oposée.

3 Les rafales max. sont disponible 40 min après l'heure du relevé.

4 Pour les stations d'altitude (plus de 600m) le géopotentiel du niveau le plus proche de la pression obligatoire est indiqué.

5 Les stations disposant d'un diffuseur peuvent indiquer "trace". Cela signifie que des précipitations ont touchés le sol mais que la quantité est inférieure à 0.1 mm.

Récapitulatif de la journée
Température [°C] Vent [km/h] Ensoleillement4 [h] Precipitations totale5 [mm] Pression [Hpa]
Min1 Max.2 Moy.3 Max. Min Max.
13.8 25.2 0 0.0 0 h 0 min 0 1016.0 1018.6

1 Température minimale relevée entre 18:00 UTC la veille et 18:00 UTC le jour donné.

2 Température maximale relevée entre 06:00 UTC le jour donné et 06:00 UTC le lendemain.

3 Vent moyen de la journée basé sur les relevés horaires.

4 Ensoleillement en heures relevé entre 06:00 UTC la veille et 06:00 UTC le jour donné.

5 Précipitations totales tombées entre 06:00 UTC la jour donné et 06:00 UTC le lendemain.

Graphiques horaires